»·PEaware :: N326LP KWHP-KBFL

N326LP :: KWHP-KBFL

FLIGHT INFORMATION

Flight Status: Arrived
Operator: Privately registered:
United States
More flights under this callsign
Pilot: Jon S. (43478)
Aircraft: CESSNA 172 SKYHAWK
(C172)
More flights by this aircraft type
Origin: KWHP Whiteman
United States
Destination: KBFL Meadows
United States
More flights between these airports :: More routes between these airports
Route:
File this flight plan on PilotEdge
Remarks:
Altitude:
(Current/Filed)
8,500ft
Speed:
(Current/Filed)
0kts
Departed: 17-Oct-23 09:31 AM
Arrived: 17-Oct-23 10:16 AM
Distance/Time
Traveled:
77nm/0:45
Distance/Time
To Go:
Arrived

Flight Plot

Page will automatically refresh every two minutes.


Map Options




Map Legend


Flown Route
Filed Route
Departure Airport
Arrival Airport
Navaid (VOR, NDB)
Fix

Horizontal Profiles

Position Reports

Time Latitude Longitude Heading Altitude Ground
Speed
17-Oct-23 09:25 34.260723 -118.411929 313 999ft 1kts
17-Oct-23 09:26 34.260409 -118.413569 42 996ft 0kts
17-Oct-23 09:27 34.258039 -118.411460 140 983ft 18kts
17-Oct-23 09:28 34.255670 -118.408972 138 970ft 0kts
17-Oct-23 09:29 34.255481 -118.409450 313 969ft 20kts
17-Oct-23 09:30 34.270131 -118.425627 325 1726ft 78kts
17-Oct-23 09:31 34.288921 -118.439787 329 2740ft 82kts
17-Oct-23 09:32 34.307535 -118.453443 328 3723ft 82kts
17-Oct-23 09:33 34.326608 -118.468201 327 4696ft 82kts
17-Oct-23 09:34 34.346158 -118.482496 332 5588ft 84kts
17-Oct-23 09:35 34.367154 -118.495832 332 6430ft 86kts
17-Oct-23 09:36 34.389296 -118.508828 337 7197ft 89kts
17-Oct-23 09:37 34.412419 -118.520051 331 7923ft 90kts
17-Oct-23 09:38 34.436475 -118.539912 324 8215ft 116kts
17-Oct-23 09:39 34.463013 -118.562870 326 8332ft 113kts
17-Oct-23 09:40 34.489950 -118.584977 325 8184ft 120kts
17-Oct-23 09:41 34.516242 -118.609925 321 8155ft 118kts
17-Oct-23 09:42 34.539955 -118.637253 316 8157ft 117kts
17-Oct-23 09:43 34.562930 -118.664561 317 8297ft 113kts
17-Oct-23 09:44 34.586371 -118.689789 322 8560ft 113kts
17-Oct-23 09:45 34.611543 -118.712979 326 8691ft 116kts
17-Oct-23 09:46 34.638556 -118.734061 331 8827ft 116kts
17-Oct-23 09:47 34.666945 -118.752380 335 8858ft 115kts
17-Oct-23 09:48 34.695622 -118.770045 335 8854ft 115kts
17-Oct-23 09:49 34.724446 -118.787355 338 8774ft 115kts
17-Oct-23 09:50 34.753350 -118.803992 335 8698ft 115kts
17-Oct-23 09:51 34.782371 -118.820602 336 8626ft 115kts
17-Oct-23 09:52 34.811753 -118.835705 339 8559ft 114kts
17-Oct-23 09:53 34.841100 -118.850471 340 8496ft 114kts
17-Oct-23 09:54 34.870430 -118.865418 339 8435ft 114kts
17-Oct-23 09:55 34.900018 -118.879378 339 8381ft 113kts
17-Oct-23 09:56 34.929566 -118.892448 343 8201ft 113kts
17-Oct-23 09:57 34.959717 -118.902916 343 7920ft 112kts
17-Oct-23 09:58 34.990053 -118.912042 346 7656ft 112kts
17-Oct-23 09:59 35.020022 -118.922704 341 7410ft 112kts
17-Oct-23 10:00 35.049600 -118.934370 344 7189ft 112kts
17-Oct-23 10:01 35.079997 -118.942811 346 6988ft 112kts
17-Oct-23 10:02 35.110670 -118.949472 349 6807ft 112kts
17-Oct-23 10:03 35.141461 -118.953887 354 6482ft 112kts
17-Oct-23 10:04 35.172586 -118.955960 355 6052ft 111kts
17-Oct-23 10:05 35.203364 -118.956676 358 5483ft 110kts
17-Oct-23 10:06 35.233901 -118.954324 0 4875ft 109kts
17-Oct-23 10:07 35.264125 -118.953038 1 4159ft 108kts
17-Oct-23 10:08 35.293851 -118.952722 353 3582ft 106kts
17-Oct-23 10:09 35.323200 -118.956413 352 3496ft 107kts
17-Oct-23 10:10 35.352215 -118.961052 342 3221ft 107kts
17-Oct-23 10:11 35.375051 -118.981410 312 2547ft 103kts
17-Oct-23 10:12 35.392236 -119.006061 313 1937ft 83kts
17-Oct-23 10:13 35.408904 -119.026163 318 1375ft 83kts
17-Oct-23 10:14 35.424366 -119.044835 317 760ft 69kts
17-Oct-23 10:15 35.435722 -119.058264 335 488ft 21kts
17-Oct-23 10:16 35.436627 -119.057335 111 494ft 12kts
17-Oct-23 10:17 35.432428 -119.052207 134 493ft 22kts
17-Oct-23 10:18 35.428021 -119.046907 135 486ft 20kts
17-Oct-23 10:19 35.425781 -119.044864 281 479ft 7kts

Navigation Log

Ident Type
Flight plan parsing failed, navigation log unavailable